sensor_id;sensor_type;location;lat;lon;timestamp;temperature;humidity
1644;DHT22;46825;51.99869940;8.49421771;2023-01-15T00:00:59;7.80;99.90
1644;DHT22;46825;51.99869940;8.49421771;2023-01-15T00:02:00;11.30;99.90
1644;DHT22;46825;51.99869940;8.49421771;2023-01-15T00:03:00;7.80;99.90
1644;DHT22;46825;51.99869940;8.49421771;2023-01-15T00:04:03;7.70;99.90
1644;DHT22;46825;51.99869940;8.49421771;2023-01-15T00:05:05;7.70;99.90
1644;DHT22;46825;51.99869940;8.49421771;2023-01-15T00:06:06;7.60;99.90
1644;DHT22;46825;51.99869940;8.49421771;2023-01-15T00:07:06;7.50;99.90
1644;DHT22;46825;51.99869940;8.49421771;2023-01-15T00:08:07;7.40;99.90
1644;DHT22;46825;51.99869940;8.49421771;2023-01-15T00:09:13;7.40;99.90
1644;DHT22;46825;51.99869940;8.49421771;2023-01-15T00:10:14;7.30;99.90
1644;DHT22;46825;51.99869940;8.49421771;2023-01-15T00:11:15;7.30;99.90
1644;DHT22;46825;51.99869940;8.49421771;2023-01-15T00:12:16;7.30;99.90
1644;DHT22;46825;51.99869940;8.49421771;2023-01-15T00:13:16;7.20;99.90
1644;DHT22;46825;51.99869940;8.49421771;2023-01-15T00:14:17;7.20;99.90
1644;DHT22;46825;51.99869940;8.49421771;2023-01-15T00:15:17;7.10;99.90
1644;DHT22;46825;51.99869940;8.49421771;2023-01-15T00:16:20;7.10;99.90
1644;DHT22;46825;51.99869940;8.49421771;2023-01-15T00:17:20;7.10;99.90
1644;DHT22;46825;51.99869940;8.49421771;2023-01-15T00:18:21;7.10;99.90
1644;DHT22;46825;51.99869940;8.49421771;2023-01-15T00:19:22;7.10;99.90
1644;DHT22;46825;51.99869940;8.49421771;2023-01-15T00:20:22;7.00;99.90
1644;DHT22;46825;51.99869940;8.49421771;2023-01-15T00:21:24;7.00;99.90
1644;DHT22;46825;51.99869940;8.49421771;2023-01-15T00:22:26;7.10;99.90
1644;DHT22;46825;51.99869940;8.49421771;2023-01-15T00:23:27;6.90;99.90
1644;DHT22;46825;51.99869940;8.49421771;2023-01-15T00:24:47;6.80;99.90
1644;DHT22;46825;51.99869940;8.49421771;2023-01-15T00:26:09;6.80;99.90
1644;DHT22;46825;51.99869940;8.49421771;2023-01-15T00:27:30;6.80;99.90
1644;DHT22;46825;51.99869940;8.49421771;2023-01-15T00:28:40;6.80;99.90
1644;DHT22;46825;51.99869940;8.49421771;2023-01-15T00:29:40;6.80;99.90
1644;DHT22;46825;51.99869940;8.49421771;2023-01-15T00:30:41;6.80;99.90
1644;DHT22;46825;51.99869940;8.49421771;2023-01-15T00:31:44;6.80;99.90
1644;DHT22;46825;51.99869940;8.49421771;2023-01-15T00:32:45;6.80;99.90
1644;DHT22;46825;51.99869940;8.49421771;2023-01-15T00:33:45;6.80;99.90
1644;DHT22;46825;51.99869940;8.49421771;2023-01-15T00:34:46;6.80;99.90
1644;DHT22;46825;51.99869940;8.49421771;2023-01-15T00:35:46;6.90;99.90
1644;DHT22;46825;51.99869940;8.49421771;2023-01-15T00:36:47;6.90;99.90
1644;DHT22;46825;51.99869940;8.49421771;2023-01-15T00:37:48;6.80;99.90
1644;DHT22;46825;51.99869940;8.49421771;2023-01-15T00:38:49;6.90;99.90
1644;DHT22;46825;51.99869940;8.49421771;2023-01-15T00:39:49;6.90;99.90
1644;DHT22;46825;51.99869940;8.49421771;2023-01-15T00:40:50;6.90;99.90
1644;DHT22;46825;51.99869940;8.49421771;2023-01-15T00:41:52;6.90;99.90
1644;DHT22;46825;51.99869940;8.49421771;2023-01-15T00:42:53;6.80;99.90
1644;DHT22;46825;51.99869940;8.49421771;2023-01-15T00:43:53;6.90;99.90
1644;DHT22;46825;51.99869940;8.49421771;2023-01-15T00:44:54;6.80;99.90
1644;DHT22;46825;51.99869940;8.49421771;2023-01-15T00:45:55;6.80;99.90
1644;DHT22;46825;51.99869940;8.49421771;2023-01-15T00:46:55;6.80;99.90
1644;DHT22;46825;51.99869940;8.49421771;2023-01-15T00:47:56;6.60;99.90
1644;DHT22;46825;51.99869940;8.49421771;2023-01-15T00:48:56;6.70;99.90
1644;DHT22;46825;51.99869940;8.49421771;2023-01-15T00:49:57;6.70;99.90
1644;DHT22;46825;51.99869940;8.49421771;2023-01-15T00:50:57;6.70;99.90
1644;DHT22;46825;51.99869940;8.49421771;2023-01-15T00:51:58;6.60;99.90
1644;DHT22;46825;51.99869940;8.49421771;2023-01-15T00:52:59;6.60;99.90
1644;DHT22;46825;51.99869940;8.49421771;2023-01-15T00:54:00;6.60;99.90
1644;DHT22;46825;51.99869940;8.49421771;2023-01-15T00:55:00;6.60;99.90
1644;DHT22;46825;51.99869940;8.49421771;2023-01-15T00:58:03;6.40;99.90
1644;DHT22;46825;51.99869940;8.49421771;2023-01-15T00:59:04;6.40;99.90
1644;DHT22;46825;51.99869940;8.49421771;2023-01-15T01:00:05;6.40;99.90
1644;DHT22;46825;51.99869940;8.49421771;2023-01-15T01:01:06;6.50;99.90
1644;DHT22;46825;51.99869940;8.49421771;2023-01-15T01:02:06;6.40;99.90
1644;DHT22;46825;51.99869940;8.49421771;2023-01-15T01:03:07;6.40;99.90
1644;DHT22;46825;51.99869940;8.49421771;2023-01-15T01:04:07;6.30;99.90
1644;DHT22;46825;51.99869940;8.49421771;2023-01-15T01:05:08;6.40;99.90
1644;DHT22;46825;51.99869940;8.49421771;2023-01-15T01:06:09;6.30;99.90
1644;DHT22;46825;51.99869940;8.49421771;2023-01-15T01:08:10;6.30;99.90
1644;DHT22;46825;51.99869940;8.49421771;2023-01-15T01:09:12;6.20;99.90
1644;DHT22;46825;51.99869940;8.49421771;2023-01-15T01:10:15;6.20;99.90
1644;DHT22;46825;51.99869940;8.49421771;2023-01-15T01:11:20;6.20;99.90
1644;DHT22;46825;51.99869940;8.49421771;2023-01-15T01:12:23;6.20;99.90
1644;DHT22;46825;51.99869940;8.49421771;2023-01-15T01:13:23;6.20;99.90
1644;DHT22;46825;51.99869940;8.49421771;2023-01-15T01:14:24;6.10;99.90
1644;DHT22;46825;51.99869940;8.49421771;2023-01-15T01:15:24;6.10;99.90
1644;DHT22;46825;51.99869940;8.49421771;2023-01-15T01:16:33;6.10;99.90
1644;DHT22;46825;51.99869940;8.49421771;2023-01-15T01:17:37;6.10;99.90
1644;DHT22;46825;51.99869940;8.49421771;2023-01-15T01:18:38;6.20;99.90
1644;DHT22;46825;51.99869940;8.49421771;2023-01-15T01:19:38;6.20;99.90
1644;DHT22;46825;51.99869940;8.49421771;2023-01-15T01:20:39;6.20;99.90
1644;DHT22;46825;51.99869940;8.49421771;2023-01-15T01:21:41;6.10;99.90
1644;DHT22;46825;51.99869940;8.49421771;2023-01-15T01:22:42;6.00;99.90
1644;DHT22;46825;51.99869940;8.49421771;2023-01-15T01:23:43;6.00;99.90
1644;DHT22;46825;51.99869940;8.49421771;2023-01-15T01:24:43;6.00;99.90
1644;DHT22;46825;51.99869940;8.49421771;2023-01-15T01:25:44;6.00;99.90
1644;DHT22;46825;51.99869940;8.49421771;2023-01-15T01:26:45;6.00;99.90
1644;DHT22;46825;51.99869940;8.49421771;2023-01-15T01:27:46;6.00;99.90
1644;DHT22;46825;51.99869940;8.49421771;2023-01-15T01:28:51;6.00;99.90
1644;DHT22;46825;51.99869940;8.49421771;2023-01-15T01:29:52;6.00;99.90
1644;DHT22;46825;51.99869940;8.49421771;2023-01-15T01:30:52;6.00;99.90
1644;DHT22;46825;51.99869940;8.49421771;2023-01-15T01:31:53;6.00;99.90
1644;DHT22;46825;51.99869940;8.49421771;2023-01-15T01:32:54;6.00;99.90
1644;DHT22;46825;51.99869940;8.49421771;2023-01-15T01:33:57;6.10;99.90
1644;DHT22;46825;51.99869940;8.49421771;2023-01-15T01:34:58;6.10;99.90
1644;DHT22;46825;51.99869940;8.49421771;2023-01-15T01:35:58;6.10;99.90
1644;DHT22;46825;51.99869940;8.49421771;2023-01-15T01:36:59;6.10;99.90
1644;DHT22;46825;51.99869940;8.49421771;2023-01-15T01:37:59;6.10;99.90
1644;DHT22;46825;51.99869940;8.49421771;2023-01-15T01:39:01;6.10;99.90
1644;DHT22;46825;51.99869940;8.49421771;2023-01-15T01:40:03;6.20;99.90
1644;DHT22;46825;51.99869940;8.49421771;2023-01-15T01:41:04;6.20;99.90
1644;DHT22;46825;51.99869940;8.49421771;2023-01-15T01:42:11;6.20;99.90
1644;DHT22;46825;51.99869940;8.49421771;2023-01-15T01:45:36;6.10;99.90
1644;DHT22;46825;51.99869940;8.49421771;2023-01-15T01:46:37;6.10;99.90
1644;DHT22;46825;51.99869940;8.49421771;2023-01-15T01:47:38;6.10;99.90
1644;DHT22;46825;51.99869940;8.49421771;2023-01-15T01:48:39;6.10;99.90
1644;DHT22;46825;51.99869940;8.49421771;2023-01-15T01:49:40;6.10;99.90
1644;DHT22;46825;51.99869940;8.49421771;2023-01-15T01:50:42;6.10;99.90
1644;DHT22;46825;51.99869940;8.49421771;2023-01-15T01:51:47;6.10;99.90
1644;DHT22;46825;51.99869940;8.49421771;2023-01-15T01:53:02;6.20;99.90
1644;DHT22;46825;51.99869940;8.49421771;2023-01-15T01:54:06;6.20;99.90
1644;DHT22;46825;51.99869940;8.49421771;2023-01-15T01:55:09;6.20;99.90
1644;DHT22;46825;51.99869940;8.49421771;2023-01-15T01:56:11;6.20;99.90
1644;DHT22;46825;51.99869940;8.49421771;2023-01-15T01:57:12;6.20;99.90
1644;DHT22;46825;51.99869940;8.49421771;2023-01-15T01:58:14;6.20;99.90
1644;DHT22;46825;51.99869940;8.49421771;2023-01-15T01:59:17;6.20;99.90
1644;DHT22;46825;51.99869940;8.49421771;2023-01-15T02:00:19;6.20;99.90
1644;DHT22;46825;51.99869940;8.49421771;2023-01-15T02:01:23;6.20;99.90
1644;DHT22;46825;51.99869940;8.49421771;2023-01-15T02:02:24;6.20;99.90
1644;DHT22;46825;51.99869940;8.49421771;2023-01-15T02:03:31;6.20;99.90
1644;DHT22;46825;51.99869940;8.49421771;2023-01-15T02:04:32;6.20;99.90
1644;DHT22;46825;51.99869940;8.49421771;2023-01-15T02:05:37;6.20;99.90
1644;DHT22;46825;51.99869940;8.49421771;2023-01-15T02:06:40;6.20;99.90
1644;DHT22;46825;51.99869940;8.49421771;2023-01-15T02:07:41;6.10;99.90
1644;DHT22;46825;51.99869940;8.49421771;2023-01-15T02:08:42;6.00;99.90
1644;DHT22;46825;51.99869940;8.49421771;2023-01-15T02:09:43;6.10;99.90
1644;DHT22;46825;51.99869940;8.49421771;2023-01-15T02:10:48;6.10;99.90
1644;DHT22;46825;51.99869940;8.49421771;2023-01-15T02:11:51;6.20;99.90
1644;DHT22;46825;51.99869940;8.49421771;2023-01-15T02:13:13;6.20;99.90
1644;DHT22;46825;51.99869940;8.49421771;2023-01-15T02:14:18;6.10;99.90
1644;DHT22;46825;51.99869940;8.49421771;2023-01-15T02:15:42;6.20;99.90
1644;DHT22;46825;51.99869940;8.49421771;2023-01-15T02:18:09;6.10;99.90
1644;DHT22;46825;51.99869940;8.49421771;2023-01-15T02:20:49;6.10;99.90
1644;DHT22;46825;51.99869940;8.49421771;2023-01-15T02:22:00;6.10;99.90
1644;DHT22;46825;51.99869940;8.49421771;2023-01-15T02:27:05;6.20;99.90
1644;DHT22;46825;51.99869940;8.49421771;2023-01-15T02:28:15;6.20;99.90
1644;DHT22;46825;51.99869940;8.49421771;2023-01-15T02:29:35;6.20;99.90
1644;DHT22;46825;51.99869940;8.49421771;2023-01-15T02:30:42;6.20;99.90
1644;DHT22;46825;51.99869940;8.49421771;2023-01-15T02:31:49;6.10;99.90
1644;DHT22;46825;51.99869940;8.49421771;2023-01-15T02:33:15;6.40;99.90
1644;DHT22;46825;51.99869940;8.49421771;2023-01-15T02:34:24;6.20;99.90
1644;DHT22;46825;51.99869940;8.49421771;2023-01-15T02:35:43;6.20;99.90
1644;DHT22;46825;51.99869940;8.49421771;2023-01-15T02:36:51;6.20;99.90
1644;DHT22;46825;51.99869940;8.49421771;2023-01-15T02:37:55;6.30;99.90
1644;DHT22;46825;51.99869940;8.49421771;2023-01-15T02:39:00;6.30;99.90
1644;DHT22;46825;51.99869940;8.49421771;2023-01-15T02:40:02;6.40;99.90
1644;DHT22;46825;51.99869940;8.49421771;2023-01-15T02:41:05;6.30;99.90
1644;DHT22;46825;51.99869940;8.49421771;2023-01-15T02:42:09;6.40;99.90
1644;DHT22;46825;51.99869940;8.49421771;2023-01-15T02:43:12;6.30;99.90
1644;DHT22;46825;51.99869940;8.49421771;2023-01-15T02:44:15;6.30;99.90
1644;DHT22;46825;51.99869940;8.49421771;2023-01-15T02:45:21;6.20;99.90
1644;DHT22;46825;51.99869940;8.49421771;2023-01-15T02:46:27;6.20;99.90
1644;DHT22;46825;51.99869940;8.49421771;2023-01-15T02:47:32;6.20;99.90
1644;DHT22;46825;51.99869940;8.49421771;2023-01-15T02:48:37;6.10;99.90
1644;DHT22;46825;51.99869940;8.49421771;2023-01-15T02:49:39;6.20;99.90
1644;DHT22;46825;51.99869940;8.49421771;2023-01-15T02:50:54;6.10;99.90
1644;DHT22;46825;51.99869940;8.49421771;2023-01-15T02:52:04;6.10;99.90
1644;DHT22;46825;51.99869940;8.49421771;2023-01-15T02:53:11;6.10;99.90
1644;DHT22;46825;51.99869940;8.49421771;2023-01-15T02:55:21;6.10;99.90
1644;DHT22;46825;51.99869940;8.49421771;2023-01-15T02:56:26;6.20;99.90
1644;DHT22;46825;51.99869940;8.49421771;2023-01-15T02:57:32;6.20;99.90
1644;DHT22;46825;51.99869940;8.49421771;2023-01-15T02:58:37;6.20;99.90
1644;DHT22;46825;51.99869940;8.49421771;2023-01-15T02:59:44;6.20;99.90
1644;DHT22;46825;51.99869940;8.49421771;2023-01-15T03:00:48;6.20;99.90
1644;DHT22;46825;51.99869940;8.49421771;2023-01-15T03:01:56;6.30;99.90
1644;DHT22;46825;51.99869940;8.49421771;2023-01-15T03:03:02;6.30;99.90
1644;DHT22;46825;51.99869940;8.49421771;2023-01-15T03:04:09;6.30;99.90
1644;DHT22;46825;51.99869940;8.49421771;2023-01-15T03:06:42;6.30;99.90
1644;DHT22;46825;51.99869940;8.49421771;2023-01-15T03:07:52;6.20;99.90
1644;DHT22;46825;51.99869940;8.49421771;2023-01-15T03:08:54;6.20;99.90
1644;DHT22;46825;51.99869940;8.49421771;2023-01-15T03:09:55;6.30;99.90
1644;DHT22;46825;51.99869940;8.49421771;2023-01-15T03:11:07;6.20;99.90
1644;DHT22;46825;51.99869940;8.49421771;2023-01-15T03:14:07;6.30;99.90
1644;DHT22;46825;51.99869940;8.49421771;2023-01-15T03:15:12;6.10;99.90
1644;DHT22;46825;51.99869940;8.49421771;2023-01-15T03:17:54;6.20;99.90
1644;DHT22;46825;51.99869940;8.49421771;2023-01-15T03:19:04;6.20;99.90
1644;DHT22;46825;51.99869940;8.49421771;2023-01-15T03:20:22;6.20;99.90
1644;DHT22;46825;51.99869940;8.49421771;2023-01-15T03:21:55;6.20;99.90
1644;DHT22;46825;51.99869940;8.49421771;2023-01-15T03:22:59;6.20;99.90
1644;DHT22;46825;51.99869940;8.49421771;2023-01-15T03:24:03;6.20;99.90
1644;DHT22;46825;51.99869940;8.49421771;2023-01-15T03:25:26;6.30;99.90
1644;DHT22;46825;51.99869940;8.49421771;2023-01-15T03:26:28;6.20;99.90
1644;DHT22;46825;51.99869940;8.49421771;2023-01-15T03:27:29;6.20;99.90
1644;DHT22;46825;51.99869940;8.49421771;2023-01-15T03:28:32;6.30;99.90
1644;DHT22;46825;51.99869940;8.49421771;2023-01-15T03:29:38;6.30;99.90
1644;DHT22;46825;51.99869940;8.49421771;2023-01-15T03:30:40;6.30;99.90
1644;DHT22;46825;51.99869940;8.49421771;2023-01-15T03:31:41;6.30;99.90
1644;DHT22;46825;51.99869940;8.49421771;2023-01-15T03:32:44;6.20;99.90
1644;DHT22;46825;51.99869940;8.49421771;2023-01-15T03:33:45;6.30;99.90
1644;DHT22;46825;51.99869940;8.49421771;2023-01-15T03:34:49;6.30;99.90
1644;DHT22;46825;51.99869940;8.49421771;2023-01-15T03:35:56;6.30;99.90
1644;DHT22;46825;51.99869940;8.49421771;2023-01-15T03:36:57;5.50;99.90
1644;DHT22;46825;51.99869940;8.49421771;2023-01-15T03:37:58;6.30;99.90
1644;DHT22;46825;51.99869940;8.49421771;2023-01-15T03:38:59;6.30;99.90
1644;DHT22;46825;51.99869940;8.49421771;2023-01-15T03:39:59;6.40;99.90
1644;DHT22;46825;51.99869940;8.49421771;2023-01-15T03:42:41;6.40;99.90
1644;DHT22;46825;51.99869940;8.49421771;2023-01-15T03:45:11;6.30;99.90
1644;DHT22;46825;51.99869940;8.49421771;2023-01-15T03:46:27;6.30;99.90
1644;DHT22;46825;51.99869940;8.49421771;2023-01-15T03:48:00;6.30;99.90
1644;DHT22;46825;51.99869940;8.49421771;2023-01-15T03:51:25;6.30;99.90
1644;DHT22;46825;51.99869940;8.49421771;2023-01-15T03:53:11;6.30;99.90
1644;DHT22;46825;51.99869940;8.49421771;2023-01-15T03:54:23;6.30;99.90
1644;DHT22;46825;51.99869940;8.49421771;2023-01-15T03:55:28;6.30;99.90
1644;DHT22;46825;51.99869940;8.49421771;2023-01-15T03:56:36;6.20;99.90
1644;DHT22;46825;51.99869940;8.49421771;2023-01-15T03:59:55;6.40;99.90
1644;DHT22;46825;51.99869940;8.49421771;2023-01-15T04:00:59;6.40;99.90
1644;DHT22;46825;51.99869940;8.49421771;2023-01-15T04:03:08;6.30;99.90
1644;DHT22;46825;51.99869940;8.49421771;2023-01-15T04:04:12;6.30;99.90
1644;DHT22;46825;51.99869940;8.49421771;2023-01-15T04:06:15;6.30;99.90
1644;DHT22;46825;51.99869940;8.49421771;2023-01-15T04:08:18;6.40;99.90
1644;DHT22;46825;51.99869940;8.49421771;2023-01-15T04:09:20;6.40;99.90
1644;DHT22;46825;51.99869940;8.49421771;2023-01-15T04:10:21;6.40;99.90
1644;DHT22;46825;51.99869940;8.49421771;2023-01-15T04:11:23;6.40;99.90
1644;DHT22;46825;51.99869940;8.49421771;2023-01-15T04:12:23;6.30;99.90
1644;DHT22;46825;51.99869940;8.49421771;2023-01-15T04:13:28;6.40;99.90
1644;DHT22;46825;51.99869940;8.49421771;2023-01-15T04:15:30;6.40;99.90
1644;DHT22;46825;51.99869940;8.49421771;2023-01-15T04:16:32;6.40;99.90
1644;DHT22;46825;51.99869940;8.49421771;2023-01-15T04:17:33;6.40;99.90
1644;DHT22;46825;51.99869940;8.49421771;2023-01-15T04:18:34;6.40;99.90
1644;DHT22;46825;51.99869940;8.49421771;2023-01-15T04:19:34;6.40;99.90
1644;DHT22;46825;51.99869940;8.49421771;2023-01-15T04:20:35;6.50;99.90
1644;DHT22;46825;51.99869940;8.49421771;2023-01-15T04:21:36;6.50;99.90
1644;DHT22;46825;51.99869940;8.49421771;2023-01-15T04:22:36;6.50;99.90
1644;DHT22;46825;51.99869940;8.49421771;2023-01-15T04:23:37;6.50;99.90
1644;DHT22;46825;51.99869940;8.49421771;2023-01-15T04:24:37;6.50;99.90
1644;DHT22;46825;51.99869940;8.49421771;2023-01-15T04:25:38;6.50;99.90
1644;DHT22;46825;51.99869940;8.49421771;2023-01-15T04:26:40;6.50;99.90
1644;DHT22;46825;51.99869940;8.49421771;2023-01-15T04:28:42;6.40;99.90
1644;DHT22;46825;51.99869940;8.49421771;2023-01-15T04:29:42;6.40;99.90
1644;DHT22;46825;51.99869940;8.49421771;2023-01-15T04:30:43;6.40;99.90
1644;DHT22;46825;51.99869940;8.49421771;2023-01-15T04:32:47;6.40;99.90
1644;DHT22;46825;51.99869940;8.49421771;2023-01-15T04:33:48;6.50;99.90
1644;DHT22;46825;51.99869940;8.49421771;2023-01-15T04:34:49;6.40;99.90
1644;DHT22;46825;51.99869940;8.49421771;2023-01-15T04:35:50;6.40;99.90
1644;DHT22;46825;51.99869940;8.49421771;2023-01-15T04:36:50;6.40;99.90
1644;DHT22;46825;51.99869940;8.49421771;2023-01-15T04:37:56;6.50;99.90
1644;DHT22;46825;51.99869940;8.49421771;2023-01-15T04:38:56;6.50;99.90
1644;DHT22;46825;51.99869940;8.49421771;2023-01-15T04:39:59;6.50;99.90
1644;DHT22;46825;51.99869940;8.49421771;2023-01-15T04:41:01;6.50;99.90
1644;DHT22;46825;51.99869940;8.49421771;2023-01-15T04:43:40;6.50;99.90
1644;DHT22;46825;51.99869940;8.49421771;2023-01-15T04:44:59;6.50;99.90
1644;DHT22;46825;51.99869940;8.49421771;2023-01-15T04:45:59;6.50;99.90
1644;DHT22;46825;51.99869940;8.49421771;2023-01-15T04:47:00;6.40;99.90
1644;DHT22;46825;51.99869940;8.49421771;2023-01-15T04:48:03;6.50;99.90
1644;DHT22;46825;51.99869940;8.49421771;2023-01-15T04:49:06;6.40;99.90
1644;DHT22;46825;51.99869940;8.49421771;2023-01-15T04:50:08;6.40;99.90
1644;DHT22;46825;51.99869940;8.49421771;2023-01-15T04:51:10;6.40;99.90
1644;DHT22;46825;51.99869940;8.49421771;2023-01-15T04:52:10;6.50;99.90
1644;DHT22;46825;51.99869940;8.49421771;2023-01-15T04:53:11;6.50;99.90
1644;DHT22;46825;51.99869940;8.49421771;2023-01-15T04:54:13;6.50;99.90
1644;DHT22;46825;51.99869940;8.49421771;2023-01-15T04:55:14;6.50;99.90
1644;DHT22;46825;51.99869940;8.49421771;2023-01-15T04:56:15;6.50;99.90
1644;DHT22;46825;51.99869940;8.49421771;2023-01-15T04:57:16;6.50;99.90
1644;DHT22;46825;51.99869940;8.49421771;2023-01-15T04:58:16;6.40;99.90
1644;DHT22;46825;51.99869940;8.49421771;2023-01-15T04:59:19;6.40;99.90
1644;DHT22;46825;51.99869940;8.49421771;2023-01-15T05:00:20;6.40;99.90
1644;DHT22;46825;51.99869940;8.49421771;2023-01-15T05:01:20;6.40;99.90
1644;DHT22;46825;51.99869940;8.49421771;2023-01-15T05:02:21;6.50;99.90
1644;DHT22;46825;51.99869940;8.49421771;2023-01-15T05:03:22;6.40;99.90
1644;DHT22;46825;51.99869940;8.49421771;2023-01-15T05:04:22;6.50;99.90
1644;DHT22;46825;51.99869940;8.49421771;2023-01-15T05:05:23;6.50;99.90
1644;DHT22;46825;51.99869940;8.49421771;2023-01-15T05:06:27;6.50;99.90
1644;DHT22;46825;51.99869940;8.49421771;2023-01-15T05:07:27;6.50;99.90
1644;DHT22;46825;51.99869940;8.49421771;2023-01-15T05:08:28;6.50;99.90
1644;DHT22;46825;51.99869940;8.49421771;2023-01-15T05:09:29;6.50;99.90
1644;DHT22;46825;51.99869940;8.49421771;2023-01-15T05:10:29;6.50;99.90
1644;DHT22;46825;51.99869940;8.49421771;2023-01-15T05:11:30;6.50;99.90
1644;DHT22;46825;51.99869940;8.49421771;2023-01-15T05:12:30;6.50;99.90
1644;DHT22;46825;51.99869940;8.49421771;2023-01-15T05:13:32;6.50;99.90
1644;DHT22;46825;51.99869940;8.49421771;2023-01-15T05:14:32;6.50;99.90
1644;DHT22;46825;51.99869940;8.49421771;2023-01-15T05:15:33;6.50;99.90
1644;DHT22;46825;51.99869940;8.49421771;2023-01-15T05:16:34;6.50;99.90
1644;DHT22;46825;51.99869940;8.49421771;2023-01-15T05:17:34;6.50;99.90
1644;DHT22;46825;51.99869940;8.49421771;2023-01-15T05:18:35;6.60;99.90
1644;DHT22;46825;51.99869940;8.49421771;2023-01-15T05:19:36;6.50;99.90
1644;DHT22;46825;51.99869940;8.49421771;2023-01-15T05:20:36;6.50;99.90
1644;DHT22;46825;51.99869940;8.49421771;2023-01-15T05:22:40;6.50;99.90
1644;DHT22;46825;51.99869940;8.49421771;2023-01-15T05:23:41;6.50;99.90
1644;DHT22;46825;51.99869940;8.49421771;2023-01-15T05:24:42;6.50;99.90
1644;DHT22;46825;51.99869940;8.49421771;2023-01-15T05:25:42;6.40;99.90
1644;DHT22;46825;51.99869940;8.49421771;2023-01-15T05:26:43;6.50;99.90
1644;DHT22;46825;51.99869940;8.49421771;2023-01-15T05:27:46;6.50;99.90
1644;DHT22;46825;51.99869940;8.49421771;2023-01-15T05:28:47;6.50;99.90
1644;DHT22;46825;51.99869940;8.49421771;2023-01-15T05:29:48;6.50;99.90
1644;DHT22;46825;51.99869940;8.49421771;2023-01-15T05:30:48;6.50;99.90
1644;DHT22;46825;51.99869940;8.49421771;2023-01-15T05:31:49;6.40;99.90
1644;DHT22;46825;51.99869940;8.49421771;2023-01-15T05:32:50;6.50;99.90
1644;DHT22;46825;51.99869940;8.49421771;2023-01-15T05:33:51;6.50;99.90
1644;DHT22;46825;51.99869940;8.49421771;2023-01-15T05:34:52;6.50;99.90
1644;DHT22;46825;51.99869940;8.49421771;2023-01-15T05:35:53;6.50;99.90
1644;DHT22;46825;51.99869940;8.49421771;2023-01-15T05:36:53;6.40;99.90
1644;DHT22;46825;51.99869940;8.49421771;2023-01-15T05:37:54;6.50;99.90
1644;DHT22;46825;51.99869940;8.49421771;2023-01-15T05:38:55;6.50;99.90
1644;DHT22;46825;51.99869940;8.49421771;2023-01-15T05:39:58;6.50;99.90
1644;DHT22;46825;51.99869940;8.49421771;2023-01-15T05:41:03;6.60;99.90
1644;DHT22;46825;51.99869940;8.49421771;2023-01-15T05:42:24;6.60;99.90
1644;DHT22;46825;51.99869940;8.49421771;2023-01-15T05:43:24;6.60;99.90
1644;DHT22;46825;51.99869940;8.49421771;2023-01-15T05:45:27;6.60;99.90
1644;DHT22;46825;51.99869940;8.49421771;2023-01-15T05:46:28;6.70;99.90
1644;DHT22;46825;51.99869940;8.49421771;2023-01-15T05:48:29;6.70;99.90
1644;DHT22;46825;51.99869940;8.49421771;2023-01-15T05:49:30;6.70;99.90
1644;DHT22;46825;51.99869940;8.49421771;2023-01-15T05:50:31;6.60;99.90
1644;DHT22;46825;51.99869940;8.49421771;2023-01-15T05:51:34;6.60;99.90
1644;DHT22;46825;51.99869940;8.49421771;2023-01-15T05:52:35;6.60;99.90
1644;DHT22;46825;51.99869940;8.49421771;2023-01-15T05:53:36;6.60;99.90
1644;DHT22;46825;51.99869940;8.49421771;2023-01-15T05:54:36;6.60;99.90
1644;DHT22;46825;51.99869940;8.49421771;2023-01-15T05:55:37;6.70;99.90
1644;DHT22;46825;51.99869940;8.49421771;2023-01-15T05:56:38;6.60;99.90
1644;DHT22;46825;51.99869940;8.49421771;2023-01-15T05:57:38;6.50;99.90
1644;DHT22;46825;51.99869940;8.49421771;2023-01-15T05:58:39;6.60;99.90
1644;DHT22;46825;51.99869940;8.49421771;2023-01-15T06:00:40;6.60;99.90
1644;DHT22;46825;51.99869940;8.49421771;2023-01-15T06:01:41;6.60;99.90
1644;DHT22;46825;51.99869940;8.49421771;2023-01-15T06:02:42;6.60;99.90
1644;DHT22;46825;51.99869940;8.49421771;2023-01-15T06:03:43;6.50;99.90
1644;DHT22;46825;51.99869940;8.49421771;2023-01-15T06:04:43;6.50;99.90
1644;DHT22;46825;51.99869940;8.49421771;2023-01-15T06:05:49;6.60;99.90
1644;DHT22;46825;51.99869940;8.49421771;2023-01-15T06:06:51;6.50;99.90
1644;DHT22;46825;51.99869940;8.49421771;2023-01-15T06:07:53;6.50;99.90
1644;DHT22;46825;51.99869940;8.49421771;2023-01-15T06:08:53;6.50;99.90
1644;DHT22;46825;51.99869940;8.49421771;2023-01-15T06:09:54;6.50;99.90
1644;DHT22;46825;51.99869940;8.49421771;2023-01-15T06:10:54;6.60;99.90
1644;DHT22;46825;51.99869940;8.49421771;2023-01-15T06:11:55;6.60;99.90
1644;DHT22;46825;51.99869940;8.49421771;2023-01-15T06:12:56;6.60;99.90
1644;DHT22;46825;51.99869940;8.49421771;2023-01-15T06:13:57;6.60;99.90
1644;DHT22;46825;51.99869940;8.49421771;2023-01-15T06:15:59;6.60;99.90
1644;DHT22;46825;51.99869940;8.49421771;2023-01-15T06:17:00;6.70;99.90
1644;DHT22;46825;51.99869940;8.49421771;2023-01-15T06:18:00;6.60;99.90
1644;DHT22;46825;51.99869940;8.49421771;2023-01-15T06:19:03;6.60;99.90
1644;DHT22;46825;51.99869940;8.49421771;2023-01-15T06:20:04;6.60;99.90
1644;DHT22;46825;51.99869940;8.49421771;2023-01-15T06:21:07;6.60;99.90
1644;DHT22;46825;51.99869940;8.49421771;2023-01-15T06:22:07;6.60;99.90
1644;DHT22;46825;51.99869940;8.49421771;2023-01-15T06:23:08;6.60;99.90
1644;DHT22;46825;51.99869940;8.49421771;2023-01-15T06:24:09;6.60;99.90
1644;DHT22;46825;51.99869940;8.49421771;2023-01-15T06:25:09;6.70;99.90
1644;DHT22;46825;51.99869940;8.49421771;2023-01-15T06:28:13;6.60;99.90
1644;DHT22;46825;51.99869940;8.49421771;2023-01-15T06:29:14;6.50;99.90
1644;DHT22;46825;51.99869940;8.49421771;2023-01-15T06:30:17;6.60;99.90
1644;DHT22;46825;51.99869940;8.49421771;2023-01-15T06:31:20;6.60;99.90
1644;DHT22;46825;51.99869940;8.49421771;2023-01-15T06:32:21;6.60;99.90
1644;DHT22;46825;51.99869940;8.49421771;2023-01-15T06:33:22;6.60;99.90
1644;DHT22;46825;51.99869940;8.49421771;2023-01-15T06:34:23;6.60;99.90
1644;DHT22;46825;51.99869940;8.49421771;2023-01-15T06:35:24;6.60;99.90
1644;DHT22;46825;51.99869940;8.49421771;2023-01-15T06:36:25;6.60;99.90